Time;durP1;ratioP1;P1;durP2;ratioP2;P2;SDS_P1;SDS_P2;PMS_P1;PMS_P2;Temp;Humidity;BMP_temperature;BMP_pressure;BME280_temperature;BME280_humidity;BME280_pressure;Samples;Min_cycle;Max_cycle;Signal;HPM_P1;HPM_P2
2021/06/23 00:01:14;;;;;;;9.32;3.60;;;24.70;68.80;;;;;;5076701;28;20120;-89
2021/06/23 00:03:39;;;;;;;10.75;3.70;;;24.70;68.80;;;;;;5058565;28;20025;-85
2021/06/23 00:06:05;;;;;;;12.70;3.88;;;24.60;68.90;;;;;;5076948;28;20070;-85
2021/06/23 00:08:31;;;;;;;12.57;4.03;;;24.60;69.00;;;;;;5076852;28;20024;-89
2021/06/23 00:10:58;;;;;;;18.48;4.80;;;24.60;69.20;;;;;;5076331;28;20032;-86
2021/06/23 00:13:26;;;;;;;11.85;3.83;;;24.60;69.30;;;;;;5058501;28;20029;-86
2021/06/23 00:15:52;;;;;;;11.88;3.70;;;24.60;69.30;;;;;;5076797;28;20031;-86
2021/06/23 00:18:18;;;;;;;14.25;3.70;;;24.50;69.10;;;;;;5058373;28;20028;-86
2021/06/23 00:20:43;;;;;;;15.55;4.05;;;24.50;69.00;;;;;;5075346;28;20030;-86
2021/06/23 00:23:09;;;;;;;13.85;3.58;;;24.50;69.00;;;;;;5076357;28;20023;-86
2021/06/23 00:25:35;;;;;;;15.65;3.72;;;24.50;69.00;;;;;;5058210;28;20392;-86
2021/06/23 00:28:01;;;;;;;11.02;3.80;;;24.50;69.00;;;;;;5076418;28;20443;-86
2021/06/23 00:30:26;;;;;;;7.15;3.90;;;24.50;69.10;;;;;;5076114;28;20056;-86
2021/06/23 00:32:54;;;;;;;17.88;3.80;;;24.50;69.10;;;;;;5076110;28;20099;-86
2021/06/23 00:35:20;;;;;;;10.98;3.85;;;24.50;69.80;;;;;;5076116;28;20473;-86
2021/06/23 00:37:46;;;;;;;19.92;5.57;;;24.50;69.90;;;;;;5076459;28;20112;-86
2021/06/23 00:40:12;;;;;;;12.60;5.20;;;24.40;69.20;;;;;;5075947;28;20029;-87
2021/06/23 00:42:41;;;;;;;9.68;4.30;;;24.40;69.30;;;;;;5076016;28;20024;-87
2021/06/23 00:45:09;;;;;;;12.73;3.85;;;24.40;69.40;;;;;;5058127;28;20031;-86
2021/06/23 00:47:35;;;;;;;10.40;4.07;;;24.40;69.50;;;;;;5076228;28;20439;-86
2021/06/23 00:50:06;;;;;;;11.40;3.95;;;24.30;69.50;;;;;;5058812;28;20021;-88
2021/06/23 00:52:33;;;;;;;9.75;4.35;;;24.30;69.60;;;;;;5076518;28;20040;-90
2021/06/23 00:54:59;;;;;;;13.82;4.20;;;24.30;69.70;;;;;;5076130;28;20020;-91
2021/06/23 00:57:25;;;;;;;17.05;4.95;;;24.30;69.90;;;;;;5058062;28;20453;-91
2021/06/23 00:59:53;;;;;;;11.57;6.78;;;24.30;70.10;;;;;;5059049;28;20467;-90
2021/06/23 01:02:20;;;;;;;13.75;6.43;;;24.20;71.00;;;;;;5071075;28;20054;-89
2021/06/23 01:04:49;;;;;;;15.55;5.22;;;24.20;70.50;;;;;;5063676;28;20154;-91
2021/06/23 01:07:16;;;;;;;18.98;6.00;;;24.20;70.80;;;;;;5075986;28;20353;-91
2021/06/23 01:09:42;;;;;;;13.45;5.20;;;24.20;70.90;;;;;;5076095;28;20048;-91
2021/06/23 01:12:26;;;;;;;14.80;6.30;;;24.20;71.10;;;;;;5075492;28;20021;-91
2021/06/23 01:15:00;;;;;;;21.40;7.05;;;24.10;71.30;;;;;;5075717;28;20478;-90
2021/06/23 01:17:34;;;;;;;16.00;6.85;;;24.10;71.30;;;;;;5075841;28;20806;-91
2021/06/23 01:20:06;;;;;;;19.55;7.10;;;24.10;71.40;;;;;;5075634;28;20028;-90
2021/06/23 01:22:33;;;;;;;9.68;5.50;;;24.10;71.50;;;;;;5069117;28;20036;-89
2021/06/23 01:24:59;;;;;;;19.73;8.82;;;24.00;71.60;;;;;;5083726;28;20020;-90
2021/06/23 01:27:25;;;;;;;25.52;11.60;;;24.00;71.80;;;;;;5057647;28;20059;-91
2021/06/23 01:29:51;;;;;;;17.80;4.80;;;23.90;71.90;;;;;;5057257;28;20024;-90
2021/06/23 01:32:17;;;;;;;16.00;7.55;;;23.90;71.70;;;;;;5075108;28;20095;-91
2021/06/23 01:34:43;;;;;;;9.68;4.70;;;23.90;71.80;;;;;;5074893;28;20103;-87
2021/06/23 01:37:09;;;;;;;18.10;6.10;;;23.90;71.50;;;;;;5075060;28;20431;-86
2021/06/23 01:39:35;;;;;;;23.02;5.75;;;23.90;71.40;;;;;;5074343;28;20024;-87
2021/06/23 01:42:01;;;;;;;10.70;6.35;;;23.90;71.40;;;;;;5074652;28;20052;-86
2021/06/23 01:44:28;;;;;;;13.80;5.35;;;23.90;71.30;;;;;;5074757;28;20051;-86
2021/06/23 01:46:56;;;;;;;16.67;5.40;;;23.90;71.30;;;;;;5056952;28;20027;-90
2021/06/23 01:49:23;;;;;;;10.30;4.75;;;24.00;71.20;;;;;;5077243;28;20031;-90
2021/06/23 01:51:49;;;;;;;17.00;4.82;;;24.00;71.30;;;;;;5077293;28;20075;-90
2021/06/23 01:54:15;;;;;;;12.77;5.85;;;24.00;71.30;;;;;;5075125;28;20044;-86
2021/06/23 01:56:41;;;;;;;14.82;5.78;;;24.00;71.50;;;;;;5074557;28;20352;-86
2021/06/23 01:59:07;;;;;;;12.65;6.03;;;23.90;71.40;;;;;;5056592;28;20051;-86
2021/06/23 02:02:12;;;;;;;24.90;10.43;;;23.90;71.20;;;;;;5074247;28;20029;-85
2021/06/23 02:04:53;;;;;;;19.63;7.82;;;23.90;71.20;;;;;;5071283;28;20031;-86
2021/06/23 02:07:27;;;;;;;15.18;4.82;;;23.90;71.10;;;;;;5074556;28;20024;-85
2021/06/23 02:10:12;;;;;;;8.48;4.75;;;23.90;70.80;;;;;;5074645;28;20020;-85
2021/06/23 02:13:11;;;;;;;12.48;4.88;;;24.00;70.70;;;;;;5057236;28;20076;-86
2021/06/23 02:15:39;;;;;;;12.40;4.95;;;24.00;70.60;;;;;;5056417;28;20120;-87
2021/06/23 02:18:07;;;;;;;6.75;3.70;;;24.00;70.60;;;;;;5074932;28;20034;-86
2021/06/23 02:20:35;;;;;;;14.85;5.57;;;24.00;70.40;;;;;;5077697;28;20128;-86
2021/06/23 02:23:06;;;;;;;11.35;4.15;;;24.00;70.40;;;;;;5062647;28;20032;-86
2021/06/23 02:25:32;;;;;;;10.88;4.55;;;24.00;70.50;;;;;;5082644;28;20066;-87
2021/06/23 02:27:57;;;;;;;5.80;3.47;;;24.10;70.50;;;;;;5077197;28;20028;-86
2021/06/23 02:30:23;;;;;;;7.93;4.18;;;24.10;70.40;;;;;;5056297;28;20024;-86
2021/06/23 02:32:49;;;;;;;8.68;3.58;;;24.10;70.40;;;;;;5074351;28;20025;-86
2021/06/23 02:35:15;;;;;;;9.68;4.15;;;24.10;70.20;;;;;;5055983;28;20493;-85
2021/06/23 02:37:41;;;;;;;10.50;3.53;;;24.20;69.90;;;;;;5074189;28;20460;-86
2021/06/23 02:40:08;;;;;;;10.70;4.90;;;24.30;69.70;;;;;;5074263;28;20028;-85
2021/06/23 02:42:35;;;;;;;10.60;4.22;;;24.40;69.50;;;;;;5073748;28;20052;-86
2021/06/23 02:45:01;;;;;;;11.55;3.67;;;24.50;69.00;;;;;;5055836;28;20027;-87
2021/06/23 02:47:27;;;;;;;19.27;4.32;;;24.70;68.70;;;;;;5056203;28;20024;-89
2021/06/23 02:49:53;;;;;;;7.85;4.00;;;24.80;68.00;;;;;;5056181;28;20020;-88
2021/06/23 02:52:20;;;;;;;12.05;3.97;;;24.90;67.60;;;;;;5074316;28;20050;-88
2021/06/23 02:54:46;;;;;;;13.43;4.20;;;25.00;67.10;;;;;;5073921;28;20082;-89
2021/06/23 02:57:12;;;;;;;10.10;3.75;;;25.00;67.40;;;;;;5074233;28;20028;-89
2021/06/23 02:59:41;;;;;;;10.02;4.35;;;25.10;66.70;;;;;;5073419;28;20029;-89
2021/06/23 03:02:06;;;;;;;15.15;4.40;;;25.20;66.60;;;;;;5073538;28;20501;-87
2021/06/23 03:04:32;;;;;;;9.90;4.00;;;25.20;66.70;;;;;;5073578;28;20021;-87
2021/06/23 03:07:09;;;;;;;12.35;3.92;;;25.30;66.70;;;;;;5073881;28;20069;-87
2021/06/23 03:09:35;;;;;;;16.05;4.78;;;25.40;66.40;;;;;;5073615;28;20021;-87
2021/06/23 03:12:00;;;;;;;9.38;4.28;;;25.60;66.20;;;;;;5073713;28;20028;-88
2021/06/23 03:14:26;;;;;;;13.15;4.00;;;25.70;65.70;;;;;;5073655;28;20027;-87
2021/06/23 03:16:52;;;;;;;8.65;4.00;;;25.90;65.40;;;;;;5073489;28;20036;-87
2021/06/23 03:19:18;;;;;;;11.57;3.90;;;26.10;65.10;;;;;;5073581;28;20074;-88
2021/06/23 03:21:44;;;;;;;9.40;4.13;;;26.20;64.80;;;;;;5073475;28;20025;-88
2021/06/23 03:24:09;;;;;;;63.20;40.55;;;26.40;64.70;;;;;;5073476;28;20095;-88
2021/06/23 03:26:35;;;;;;;6.85;3.90;;;26.40;64.50;;;;;;5073837;28;20024;-89
2021/06/23 03:29:23;;;;;;;10.27;4.68;;;26.50;64.40;;;;;;5072063;28;20025;-87
2021/06/23 03:31:50;;;;;;;10.45;4.00;;;26.60;64.20;;;;;;5073080;28;20033;-88
2021/06/23 03:34:15;;;;;;;16.55;4.70;;;26.60;64.10;;;;;;5073273;28;20020;-87
2021/06/23 03:36:41;;;;;;;12.80;4.10;;;26.70;64.20;;;;;;5073592;28;20485;-87
2021/06/23 03:39:07;;;;;;;11.25;4.30;;;26.80;64.20;;;;;;5055273;28;20029;-87
2021/06/23 03:41:33;;;;;;;8.90;4.10;;;26.80;64.30;;;;;;5073267;28;20039;-86
2021/06/23 03:43:58;;;;;;;11.50;4.18;;;26.90;64.30;;;;;;5073883;28;20383;-86
2021/06/23 03:46:24;;;;;;;11.70;4.45;;;27.10;64.30;;;;;;5072223;28;20020;-85
2021/06/23 03:48:50;;;;;;;7.50;4.10;;;27.20;64.10;;;;;;5072462;28;20031;-85
2021/06/23 03:51:16;;;;;;;13.40;5.10;;;27.30;63.90;;;;;;5054528;28;20108;-85
2021/06/23 03:53:42;;;;;;;8.25;3.78;;;27.40;63.70;;;;;;5072316;28;20041;-86
2021/06/23 03:56:08;;;;;;;8.63;3.97;;;27.40;63.40;;;;;;5074851;28;20020;-84
2021/06/23 03:58:34;;;;;;;16.92;4.28;;;27.40;63.20;;;;;;5076696;28;20024;-85
2021/06/23 04:01:00;;;;;;;14.20;4.93;;;27.30;63.10;;;;;;5076933;28;20035;-84
2021/06/23 04:03:25;;;;;;;13.52;4.60;;;27.30;63.20;;;;;;5060365;28;20460;-84
2021/06/23 04:05:51;;;;;;;12.55;4.30;;;27.30;63.30;;;;;;5081708;28;20052;-85
2021/06/23 04:08:17;;;;;;;8.05;3.90;;;27.30;63.10;;;;;;5076722;28;20032;-86
2021/06/23 04:10:43;;;;;;;10.38;4.50;;;27.30;63.10;;;;;;5076466;28;20021;-87
2021/06/23 04:13:08;;;;;;;7.13;4.10;;;27.20;62.90;;;;;;5061277;28;20035;-87
2021/06/23 04:15:34;;;;;;;8.45;4.10;;;27.30;63.10;;;;;;5074712;28;20040;-88
2021/06/23 04:18:00;;;;;;;12.40;4.28;;;27.20;63.20;;;;;;5057912;28;20032;-87
2021/06/23 04:20:25;;;;;;;8.25;4.10;;;27.10;63.20;;;;;;5058034;28;20394;-87
2021/06/23 04:22:51;;;;;;;6.03;4.07;;;27.10;63.30;;;;;;5057877;28;20024;-87
2021/06/23 04:25:17;;;;;;;15.00;4.55;;;27.00;63.40;;;;;;5075949;28;20016;-87
2021/06/23 04:27:44;;;;;;;11.50;5.93;;;26.90;63.70;;;;;;5075772;28;20098;-87
2021/06/23 04:30:11;;;;;;;14.82;5.35;;;26.80;64.10;;;;;;5057788;28;20021;-86
2021/06/23 04:32:37;;;;;;;9.50;4.55;;;26.70;64.40;;;;;;5075617;28;20027;-86
2021/06/23 04:35:06;;;;;;;14.27;4.80;;;26.60;64.30;;;;;;5057580;28;20020;-87
2021/06/23 04:37:34;;;;;;;13.07;5.30;;;26.60;64.70;;;;;;5076561;28;20372;-86
2021/06/23 04:40:00;;;;;;;9.02;4.53;;;26.50;64.90;;;;;;5073889;28;20390;-86
2021/06/23 04:42:26;;;;;;;9.75;4.40;;;26.40;64.90;;;;;;5075480;28;20026;-85
2021/06/23 04:44:52;;;;;;;13.50;4.57;;;26.30;65.00;;;;;;5056954;28;20028;-85
2021/06/23 04:47:19;;;;;;;14.57;5.00;;;26.20;65.20;;;;;;5076042;28;20017;-85
2021/06/23 04:49:44;;;;;;;9.63;4.85;;;26.20;65.50;;;;;;5077208;28;20039;-84
2021/06/23 04:52:10;;;;;;;9.68;4.55;;;26.10;65.60;;;;;;5056724;28;20475;-85
2021/06/23 04:54:36;;;;;;;15.93;4.88;;;26.10;65.60;;;;;;5056856;28;20060;-86
2021/06/23 04:57:02;;;;;;;10.50;4.80;;;26.10;65.50;;;;;;5057105;28;20052;-86
2021/06/23 04:59:29;;;;;;;12.25;4.97;;;26.10;65.80;;;;;;5075059;28;20025;-86
2021/06/23 05:01:55;;;;;;;9.52;4.65;;;26.10;65.90;;;;;;5057263;28;20040;-89
2021/06/23 05:04:21;;;;;;;10.68;5.05;;;26.10;65.70;;;;;;5076156;28;20024;-88
2021/06/23 05:06:46;;;;;;;13.98;4.65;;;26.10;66.30;;;;;;5075680;28;20012;-89
2021/06/23 05:09:12;;;;;;;17.13;5.07;;;26.20;65.70;;;;;;5075685;28;20025;-88
2021/06/23 05:11:38;;;;;;;14.70;4.78;;;26.30;65.50;;;;;;5057968;28;20111;-89
2021/06/23 05:14:06;;;;;;;11.75;5.20;;;26.50;65.60;;;;;;5057268;28;20399;-89
2021/06/23 05:16:32;;;;;;;8.32;5.15;;;26.70;65.20;;;;;;5075623;28;20097;-89
2021/06/23 05:18:58;;;;;;;10.23;4.75;;;26.90;64.50;;;;;;5057604;28;20032;-89
2021/06/23 05:21:24;;;;;;;12.02;5.20;;;27.20;64.50;;;;;;5074275;28;20033;-89
2021/06/23 05:23:50;;;;;;;14.40;5.00;;;28.00;64.70;;;;;;5074521;28;20035;-90
2021/06/23 05:26:16;;;;;;;14.52;4.97;;;29.30;63.30;;;;;;5056725;28;20020;-90
2021/06/23 05:28:42;;;;;;;12.30;4.78;;;30.40;60.80;;;;;;5056720;28;20375;-90
2021/06/23 05:31:07;;;;;;;11.43;4.80;;;31.60;57.90;;;;;;5074709;28;20021;-90
2021/06/23 05:33:33;;;;;;;7.95;4.53;;;32.20;56.10;;;;;;5056814;28;20021;-90
2021/06/23 05:35:59;;;;;;;13.38;4.90;;;32.80;55.10;;;;;;5074931;28;20024;-89
2021/06/23 05:38:25;;;;;;;12.70;4.90;;;33.50;53.80;;;;;;5073963;28;20165;-90
2021/06/23 05:40:50;;;;;;;17.13;5.45;;;33.90;52.80;;;;;;5075324;28;20459;-86
2021/06/23 05:43:16;;;;;;;9.20;4.85;;;34.50;52.20;;;;;;5074143;28;20105;-86
2021/06/23 05:45:42;;;;;;;15.48;4.63;;;35.20;51.10;;;;;;5073905;28;20086;-83
2021/06/23 05:48:08;;;;;;;14.23;4.95;;;35.70;50.20;;;;;;5054852;28;20031;-82
2021/06/23 05:50:34;;;;;;;13.10;5.13;;;36.10;49.10;;;;;;5054318;28;20028;-82
2021/06/23 05:53:00;;;;;;;9.82;4.60;;;36.40;48.90;;;;;;5072096;28;20048;-83
2021/06/23 05:55:26;;;;;;;12.65;6.05;;;36.90;48.50;;;;;;5073404;28;20471;-82
2021/06/23 05:57:53;;;;;;;8.80;4.30;;;37.20;47.70;;;;;;5072985;28;20036;-82
2021/06/23 06:00:20;;;;;;;12.77;5.22;;;37.40;46.70;;;;;;5072609;28;20058;-82
2021/06/23 06:02:47;;;;;;;13.50;6.57;;;37.60;46.90;;;;;;5073067;28;20043;-83
2021/06/23 06:05:13;;;;;;;14.15;5.43;;;38.00;46.60;;;;;;5072643;28;20421;-83
2021/06/23 06:07:39;;;;;;;14.95;5.20;;;38.50;45.90;;;;;;5072487;28;20021;-85
2021/06/23 06:10:06;;;;;;;8.45;4.50;;;38.90;45.50;;;;;;5073041;28;20443;-83
2021/06/23 06:12:31;;;;;;;9.02;4.68;;;38.90;44.70;;;;;;5073175;28;20033;-84
2021/06/23 06:14:57;;;;;;;19.85;6.35;;;38.70;44.00;;;;;;5072809;28;20031;-80
2021/06/23 06:17:23;;;;;;;12.00;4.70;;;38.40;44.80;;;;;;5055587;28;20111;-83
2021/06/23 06:19:48;;;;;;;7.35;5.00;;;38.20;44.20;;;;;;5073052;28;20078;-83
2021/06/23 06:22:14;;;;;;;5.85;4.57;;;37.60;44.40;;;;;;5073060;28;20029;-83
2021/06/23 06:24:40;;;;;;;9.82;4.63;;;36.50;44.90;;;;;;5073433;28;20082;-84
2021/06/23 06:27:06;;;;;;;9.13;4.40;;;35.60;46.10;;;;;;5073149;28;20028;-84
2021/06/23 06:29:32;;;;;;;10.52;4.78;;;35.00;46.80;;;;;;5080338;28;20475;-83
2021/06/23 06:31:57;;;;;;;11.00;4.50;;;34.40;48.10;;;;;;5054617;28;20108;-84
2021/06/23 06:34:23;;;;;;;8.55;5.50;;;34.20;48.50;;;;;;5072970;28;20032;-82
2021/06/23 06:36:49;;;;;;;8.77;5.57;;;34.10;49.20;;;;;;5072999;28;20099;-84
2021/06/23 06:39:14;;;;;;;10.45;5.10;;;34.00;49.60;;;;;;5072607;28;20078;-82
2021/06/23 06:41:40;;;;;;;12.65;5.28;;;34.20;49.60;;;;;;5073127;28;20456;-86
2021/06/23 06:44:06;;;;;;;10.85;5.35;;;34.40;49.40;;;;;;5073983;28;20100;-84
2021/06/23 06:46:31;;;;;;;10.43;5.07;;;34.70;49.50;;;;;;5073374;28;20479;-83
2021/06/23 06:48:57;;;;;;;11.27;4.93;;;34.90;48.90;;;;;;5073050;28;20028;-84
2021/06/23 06:51:23;;;;;;;13.43;5.22;;;34.50;48.50;;;;;;5072518;28;20367;-83
2021/06/23 06:53:49;;;;;;;14.50;5.45;;;34.10;49.10;;;;;;5054706;28;20169;-84
2021/06/23 06:56:16;;;;;;;8.80;4.45;;;33.60;49.40;;;;;;5072707;28;20021;-83
2021/06/23 06:58:41;;;;;;;12.02;4.78;;;32.80;50.30;;;;;;5073105;28;20042;-83
2021/06/23 07:01:07;;;;;;;10.20;5.28;;;32.00;51.60;;;;;;5054074;28;20750;-83
2021/06/23 07:03:33;;;;;;;10.35;5.38;;;31.40;52.60;;;;;;5075514;28;20021;-83
2021/06/23 07:05:58;;;;;;;10.27;5.30;;;31.00;53.40;;;;;;5074614;28;20335;-84
2021/06/23 07:08:24;;;;;;;10.27;5.60;;;30.50;54.10;;;;;;5072823;28;20426;-82
2021/06/23 07:10:50;;;;;;;9.70;5.40;;;30.10;55.10;;;;;;5072537;28;20104;-82
2021/06/23 07:13:16;;;;;;;11.10;5.93;;;29.80;55.80;;;;;;5072608;28;20025;-82
2021/06/23 07:15:41;;;;;;;10.38;4.93;;;29.50;56.70;;;;;;5072715;28;20039;-82
2021/06/23 07:18:07;;;;;;;10.93;5.15;;;29.20;57.60;;;;;;5072831;28;20029;-83
2021/06/23 07:20:33;;;;;;;7.95;5.65;;;29.10;58.20;;;;;;5072488;28;20024;-83
2021/06/23 07:22:59;;;;;;;13.07;5.18;;;28.90;59.10;;;;;;5072274;28;20383;-82
2021/06/23 07:25:24;;;;;;;9.32;5.43;;;28.90;59.60;;;;;;5071796;28;20025;-83
2021/06/23 07:27:50;;;;;;;11.88;4.97;;;29.00;59.70;;;;;;5071902;28;20016;-83
2021/06/23 07:30:17;;;;;;;12.00;5.20;;;29.00;59.70;;;;;;5074306;28;20032;-83
2021/06/23 07:32:49;;;;;;;15.25;5.50;;;29.10;59.10;;;;;;5075871;28;20024;-82
2021/06/23 07:38:01;;;;;;;15.45;6.13;;;29.10;59.30;;;;;;5075129;28;20032;-81
2021/06/23 07:43:18;;;;;;;12.15;5.65;;;29.40;59.50;;;;;;5060448;28;20051;-83
2021/06/23 07:45:56;;;;;;;8.90;5.55;;;29.50;59.00;;;;;;5075568;28;20033;-82
2021/06/23 07:48:26;;;;;;;16.83;5.95;;;29.50;58.90;;;;;;5075676;28;20048;-83
2021/06/23 07:50:57;;;;;;;20.20;5.53;;;30.10;59.40;;;;;;5075856;28;20467;-82
2021/06/23 07:53:27;;;;;;;10.73;5.03;;;30.80;58.40;;;;;;5075229;28;20514;-83
2021/06/23 07:56:07;;;;;;;14.07;4.93;;;31.50;56.60;;;;;;5075642;28;20035;-83
2021/06/23 08:01:50;;;;;;;14.77;5.80;;;32.50;54.90;;;;;;5075446;28;20058;-83
2021/06/23 08:09:38;;;;;;;11.80;5.45;;;32.90;52.60;;;;;;5075526;28;20039;-83
2021/06/23 08:12:17;;;;;;;17.17;5.65;;;32.80;52.10;;;;;;5061701;28;20035;-84
2021/06/23 08:14:44;;;;;;;11.35;5.50;;;32.70;52.40;;;;;;5057374;28;20376;-82
2021/06/23 08:17:09;;;;;;;11.10;5.78;;;32.70;52.90;;;;;;5057225;28;20036;-83
2021/06/23 08:19:36;;;;;;;7.35;5.10;;;32.60;53.00;;;;;;5075150;28;20028;-83
2021/06/23 08:22:04;;;;;;;10.40;5.38;;;32.40;52.90;;;;;;5074925;28;20040;-82
2021/06/23 08:24:29;;;;;;;11.07;4.80;;;32.20;52.80;;;;;;5058666;28;20383;-83
2021/06/23 08:26:55;;;;;;;14.10;5.38;;;32.30;52.70;;;;;;5075402;28;20024;-83
2021/06/23 08:29:21;;;;;;;13.00;5.53;;;32.40;53.00;;;;;;5057422;28;20035;-83
2021/06/23 08:31:47;;;;;;;13.85;5.68;;;32.50;53.10;;;;;;5075874;28;20029;-85
2021/06/23 08:34:13;;;;;;;13.70;5.63;;;32.50;53.10;;;;;;5057482;28;20111;-85
2021/06/23 08:36:39;;;;;;;14.23;5.72;;;32.40;53.20;;;;;;5075544;28;20100;-86
2021/06/23 08:39:05;;;;;;;10.38;5.18;;;32.20;53.80;;;;;;5075201;28;20450;-86
2021/06/23 08:41:31;;;;;;;11.50;5.35;;;32.30;53.80;;;;;;5073665;28;20116;-81
2021/06/23 08:43:58;;;;;;;10.18;5.00;;;32.20;53.50;;;;;;5074633;28;20032;-88
2021/06/23 08:46:25;;;;;;;7.20;5.00;;;32.20;54.10;;;;;;5074916;28;20024;-83
2021/06/23 08:48:51;;;;;;;14.15;5.45;;;32.30;53.80;;;;;;5056447;28;20124;-82
2021/06/23 08:51:17;;;;;;;12.38;5.05;;;32.50;53.60;;;;;;5074457;28;20028;-83
2021/06/23 08:53:43;;;;;;;12.70;5.68;;;32.60;53.50;;;;;;5073715;28;20040;-85
2021/06/23 08:56:08;;;;;;;13.90;5.00;;;32.30;53.10;;;;;;5074573;28;20058;-82
2021/06/23 08:58:35;;;;;;;16.92;6.28;;;32.10;53.30;;;;;;5056112;28;20056;-82
2021/06/23 09:01:01;;;;;;;14.35;5.00;;;31.90;54.10;;;;;;5073198;28;20068;-84
2021/06/23 09:03:26;;;;;;;14.55;6.07;;;31.70;54.40;;;;;;5073675;28;20096;-82
2021/06/23 09:05:57;;;;;;;17.38;5.60;;;31.60;54.70;;;;;;5073515;28;20024;-82
2021/06/23 09:08:41;;;;;;;14.60;6.00;;;31.30;54.90;;;;;;5073585;28;20020;-82
2021/06/23 09:11:16;;;;;;;11.50;5.43;;;31.40;55.80;;;;;;5056627;28;20031;-83
2021/06/23 09:13:42;;;;;;;15.07;5.47;;;31.70;55.50;;;;;;5074176;28;20051;-85
2021/06/23 09:16:10;;;;;;;14.32;5.63;;;32.00;55.00;;;;;;5055802;28;20025;-82
2021/06/23 09:18:37;;;;;;;22.17;5.93;;;31.90;54.80;;;;;;5073817;28;20033;-81
2021/06/23 09:21:18;;;;;;;18.63;6.07;;;31.90;55.50;;;;;;5072526;28;20115;-80
2021/06/23 09:23:56;;;;;;;13.90;5.43;;;32.20;55.60;;;;;;5073102;28;20103;-85
2021/06/23 09:26:23;;;;;;;12.15;6.20;;;32.30;54.90;;;;;;5072746;28;20033;-81
2021/06/23 09:29:08;;;;;;;13.48;6.65;;;32.30;54.50;;;;;;5073175;28;20033;-80
2021/06/23 09:31:57;;;;;;;15.43;6.10;;;32.00;54.80;;;;;;5072883;28;20020;-80
2021/06/23 09:34:27;;;;;;;21.92;5.88;;;31.70;55.50;;;;;;5072687;28;20024;-81
2021/06/23 09:36:54;;;;;;;19.45;5.90;;;31.60;55.60;;;;;;5072922;28;20031;-83
2021/06/23 09:39:23;;;;;;;19.55;6.40;;;31.50;56.10;;;;;;5073027;28;20028;-81
2021/06/23 09:41:50;;;;;;;10.98;5.82;;;31.40;56.40;;;;;;5072739;28;20028;-83
2021/06/23 09:44:16;;;;;;;11.00;5.97;;;31.50;56.20;;;;;;5074191;28;20012;-83
2021/06/23 09:46:44;;;;;;;11.30;5.45;;;31.40;56.50;;;;;;5072926;28;20078;-83
2021/06/23 09:49:22;;;;;;;16.40;6.13;;;31.40;57.10;;;;;;5072706;28;20374;-82
2021/06/23 09:51:56;;;;;;;10.32;6.18;;;31.50;57.10;;;;;;5073673;28;20027;-83
2021/06/23 09:54:27;;;;;;;13.93;7.20;;;31.50;57.00;;;;;;5073476;28;20086;-85
2021/06/23 09:57:02;;;;;;;11.32;6.13;;;31.30;57.60;;;;;;5073788;28;20035;-82
2021/06/23 09:59:34;;;;;;;16.40;6.28;;;31.40;57.90;;;;;;5057555;28;20052;-84
2021/06/23 10:02:00;;;;;;;11.98;5.75;;;31.60;57.90;;;;;;5074414;28;20029;-84
2021/06/23 10:04:34;;;;;;;10.13;5.43;;;31.80;57.40;;;;;;5073585;28;20024;-85
2021/06/23 10:07:01;;;;;;;14.02;5.68;;;31.90;57.00;;;;;;5073648;28;20467;-85
2021/06/23 10:09:31;;;;;;;15.63;6.03;;;31.80;56.90;;;;;;5055719;28;20391;-85
2021/06/23 10:12:06;;;;;;;11.80;5.72;;;31.70;57.40;;;;;;5073113;28;20027;-82
2021/06/23 10:14:34;;;;;;;17.10;6.20;;;31.60;57.20;;;;;;5072011;28;20027;-81
2021/06/23 10:17:02;;;;;;;14.35;5.88;;;31.60;57.60;;;;;;5071968;28;20024;-81
2021/06/23 10:19:29;;;;;;;14.70;5.85;;;31.60;56.90;;;;;;5072680;28;20091;-81
2021/06/23 10:21:58;;;;;;;20.38;6.05;;;31.50;57.30;;;;;;5072551;28;20032;-81
2021/06/23 10:24:27;;;;;;;17.83;6.85;;;31.70;57.30;;;;;;5072063;28;20055;-80
2021/06/23 10:26:53;;;;;;;18.23;5.55;;;31.80;57.40;;;;;;5071800;28;20463;-80
2021/06/23 10:29:27;;;;;;;14.05;5.93;;;32.00;56.90;;;;;;5054484;28;20028;-80
2021/06/23 10:31:53;;;;;;;15.55;6.50;;;32.00;56.80;;;;;;5072694;28;20021;-82
2021/06/23 10:34:20;;;;;;;18.20;7.63;;;32.10;56.60;;;;;;5073084;28;20023;-85
2021/06/23 10:36:47;;;;;;;17.13;7.05;;;32.10;56.60;;;;;;5072927;28;20052;-84
2021/06/23 10:39:15;;;;;;;15.70;6.70;;;32.10;55.90;;;;;;5073699;28;20048;-83
2021/06/23 10:42:06;;;;;;;17.08;6.22;;;32.10;56.60;;;;;;5073043;28;20467;-84
2021/06/23 10:44:37;;;;;;;18.88;7.03;;;32.20;56.50;;;;;;5072479;28;20079;-84
2021/06/23 10:47:06;;;;;;;;;;;32.20;56.50;;;;;;5073024;28;20021;-83
2021/06/23 10:49:53;;;;;;;12.82;6.07;;;32.10;56.50;;;;;;5072229;28;19927;-82
2021/06/23 10:52:22;;;;;;;17.15;6.53;;;31.90;56.80;;;;;;5053150;28;20335;-82
2021/06/23 10:54:51;;;;;;;14.18;6.10;;;31.70;57.40;;;;;;5071961;28;20383;-83
2021/06/23 10:57:25;;;;;;;20.95;7.30;;;31.40;57.80;;;;;;5071854;28;20119;-83
2021/06/23 11:00:14;;;;;;;17.55;7.30;;;31.10;58.80;;;;;;5054820;28;20025;-82
2021/06/23 11:02:50;;;;;;;16.70;6.53;;;30.80;59.80;;;;;;5060860;28;20047;-85
2021/06/23 11:05:22;;;;;;;25.05;6.80;;;30.70;60.90;;;;;;5071494;28;20078;-83
2021/06/23 11:07:50;;;;;;;15.70;6.68;;;30.60;61.50;;;;;;5071929;28;20506;-82
2021/06/23 11:10:17;;;;;;;22.90;7.18;;;30.60;61.90;;;;;;5072404;28;20028;-80
2021/06/23 11:12:46;;;;;;;20.25;6.57;;;30.60;63.00;;;;;;5071808;28;20444;-81
2021/06/23 11:15:17;;;;;;;17.33;7.10;;;30.60;62.60;;;;;;5053847;28;20027;-80
2021/06/23 11:17:45;;;;;;;14.68;7.05;;;30.60;62.80;;;;;;5071336;28;20062;-81
2021/06/23 11:20:20;;;;;;;17.13;6.75;;;30.60;62.40;;;;;;5070947;28;20021;-79
2021/06/23 11:22:53;;;;;;;22.75;6.63;;;30.50;63.10;;;;;;5052978;28;20046;-79
2021/06/23 11:25:19;;;;;;;17.40;6.65;;;30.40;62.80;;;;;;5071542;28;20029;-80
2021/06/23 11:27:44;;;;;;;19.73;6.30;;;30.30;62.60;;;;;;5053338;28;20082;-79
2021/06/23 11:30:21;;;;;;;11.95;6.30;;;30.20;62.40;;;;;;5070953;28;20025;-80
2021/06/23 11:32:47;;;;;;;18.95;5.93;;;30.10;62.10;;;;;;5071653;28;20021;-80
2021/06/23 11:35:13;;;;;;;12.75;6.07;;;30.00;62.20;;;;;;5071405;28;20472;-82
2021/06/23 11:37:39;;;;;;;18.30;6.63;;;29.90;62.60;;;;;;5071652;28;20048;-80
2021/06/23 11:40:14;;;;;;;23.38;6.65;;;29.80;63.20;;;;;;5071132;28;20927;-80
2021/06/23 11:42:40;;;;;;;20.90;6.30;;;29.70;63.40;;;;;;5071027;28;20024;-81
2021/06/23 11:45:06;;;;;;;18.88;6.25;;;29.60;64.00;;;;;;5052879;28;20024;-80
2021/06/23 11:47:32;;;;;;;21.48;6.70;;;29.60;64.40;;;;;;5071005;28;20489;-79
2021/06/23 11:49:58;;;;;;;24.02;7.10;;;29.50;64.80;;;;;;5071115;28;20147;-80
2021/06/23 11:52:23;;;;;;;14.93;6.97;;;29.40;65.50;;;;;;5070852;28;20071;-78
2021/06/23 11:54:49;;;;;;;17.83;7.30;;;29.40;66.00;;;;;;5086603;28;20029;-79
2021/06/23 11:57:15;;;;;;;21.02;7.35;;;29.30;66.30;;;;;;5071289;28;20028;-78
2021/06/23 11:59:43;;;;;;;19.75;6.60;;;29.20;67.40;;;;;;5071790;28;20690;-80
2021/06/23 12:02:09;;;;;;;22.60;6.88;;;29.10;67.10;;;;;;5071643;28;20032;-81
2021/06/23 12:04:35;;;;;;;20.85;8.93;;;28.90;67.20;;;;;;5071511;28;20811;-80
2021/06/23 12:07:01;;;;;;;27.08;7.28;;;28.90;67.50;;;;;;5071209;28;20044;-80
2021/06/23 12:09:27;;;;;;;21.85;6.22;;;28.90;67.60;;;;;;5071469;28;20027;-80
2021/06/23 12:11:53;;;;;;;16.80;6.03;;;29.00;67.40;;;;;;5071352;28;20025;-80
2021/06/23 12:14:19;;;;;;;22.50;6.88;;;28.90;67.10;;;;;;5071147;28;20032;-80
2021/06/23 12:16:44;;;;;;;15.07;6.22;;;28.90;66.90;;;;;;5071473;28;20024;-80
2021/06/23 12:19:11;;;;;;;21.63;6.28;;;29.00;67.10;;;;;;5074459;28;20096;-80
2021/06/23 12:21:37;;;;;;;18.33;6.53;;;29.00;67.10;;;;;;5074057;28;20025;-80
2021/06/23 12:24:03;;;;;;;21.17;6.85;;;29.10;66.90;;;;;;5074506;28;20035;-80
2021/06/23 12:26:29;;;;;;;23.95;6.53;;;29.10;66.70;;;;;;5074640;28;20017;-80
2021/06/23 12:28:55;;;;;;;27.52;6.88;;;29.10;66.60;;;;;;5074060;28;20437;-80
2021/06/23 12:31:20;;;;;;;19.95;7.00;;;29.10;66.70;;;;;;5074253;28;20051;-81
2021/06/23 12:33:46;;;;;;;21.73;6.88;;;29.20;66.70;;;;;;5075305;28;20436;-82
2021/06/23 12:36:13;;;;;;;23.15;7.05;;;29.30;66.40;;;;;;5075596;28;20051;-82
2021/06/23 12:38:39;;;;;;;32.38;8.30;;;29.50;66.20;;;;;;5057160;28;20035;-81
2021/06/23 12:41:05;;;;;;;18.05;7.53;;;29.70;65.90;;;;;;5075002;28;20024;-81
2021/06/23 12:43:31;;;;;;;24.45;6.43;;;29.80;65.70;;;;;;5074969;28;20031;-80
2021/06/23 12:45:56;;;;;;;19.90;6.45;;;29.80;65.50;;;;;;5074721;28;20048;-81
2021/06/23 12:48:22;;;;;;;19.58;6.70;;;29.80;64.90;;;;;;5074832;28;20370;-82
2021/06/23 12:50:48;;;;;;;20.30;5.93;;;29.80;64.50;;;;;;5075321;28;20029;-81
2021/06/23 12:53:14;;;;;;;23.52;6.32;;;29.70;64.40;;;;;;5056617;28;20044;-82
2021/06/23 12:55:40;;;;;;;19.70;6.47;;;29.60;64.70;;;;;;5074756;28;20025;-82